Tuesday, January 22, 2019, 4:56 PM EST
Back to Local

KFWN, Sussex Airport

Location: Sussex, NJ, United States Lat: 41.2
Local Time: 4:56 PM EST (21:56 GMT) Lon: -74.633
Time Zone: US/Eastern Elev: 419 ft

Show me the last for .
Show Decoded

2019-01-22 15:53 METAR KFWN 222053Z AUTO 23003KT 10SM CLR M03/M13 A3058 RMK AO2 SLP364 T10281128
                 55011 =
2019-01-22 14:53 METAR KFWN 221953Z AUTO VRB03KT 10SM CLR M03/M13 A3058 RMK AO2 SLP363 T10331128
                 =
2019-01-22 13:53 METAR KFWN 221853Z AUTO 32005KT 10SM CLR M03/M13 A3059 RMK AO2 SLP366 T10331133
                 =
2019-01-22 12:53 METAR KFWN 221753Z AUTO 28005KT 10SM CLR M06/M14 A3061 RMK AO2 SLP375 60000
                 T10561144 11056 21150 56006 =
2019-01-22 11:53 METAR KFWN 221653Z AUTO VRB03KT 10SM CLR M07/M16 A3062 RMK AO2 UPB11E21 SLP376
                 P0000 T10671156 =
2019-01-22 10:53 METAR KFWN 221553Z AUTO 00000KT 10SM CLR M09/M16 A3062 RMK AO2 SLP378 T10891161
                 =
2019-01-22 09:53 METAR KFWN 221453Z AUTO 00000KT 10SM CLR M11/M17 A3063 RMK AO2 SLP383 T11061167
                 51023 =
2019-01-22 08:53 METAR KFWN 221353Z AUTO VRB03KT 10SM CLR M11/M17 A3062 RMK AO2 SLP376 T11111167
                 =
2019-01-22 07:53 METAR KFWN 221253Z AUTO VRB03KT 10SM CLR M13/M17 A3059 RMK AO2 SLP369 T11331172
                 $ =
2019-01-22 06:53 METAR KFWN 221153Z AUTO VRB04KT 10SM CLR M13/M17 A3057 RMK AO2 SLP360 T11281172
                 11117 21133 51032 $ =
2019-01-22 05:53 METAR KFWN 221053Z AUTO 00000KT 10SM CLR M13/M17 A3055 RMK AO2 SLP355 T11281172
                 $ =
2019-01-22 04:53 METAR KFWN 220953Z AUTO 00000KT 10SM CLR M12/M17 A3051 RMK AO2 SLP342 T11221172
                 $ =
2019-01-22 03:53 METAR KFWN 220853Z AUTO 00000KT 10SM CLR M12/M17 A3047 RMK AO2 SLP327 T11221172
                 53025 $ =
2019-01-22 02:53 METAR KFWN 220753Z AUTO VRB03KT 10SM CLR M12/M17 A3043 RMK AO2 SLP312 T11221172
                 $ =
2019-01-22 01:53 METAR KFWN 220653Z AUTO 33010G21KT 10SM CLR M12/M17 A3040 RMK AO2 SLP303
                 T11171172 $ =
2019-01-22 00:53 METAR KFWN 220553Z AUTO 29011G17KT 260V320 10SM CLR M13/M18 A3040 RMK AO2 SLP302
                 T11281178 11128 21139 50019 $ =
2019-01-21 23:53 METAR KFWN 220453Z AUTO 30007KT 260V330 10SM FEW032 M13/M18 A3040 RMK AO2 SLP303
                 T11281183 411171178 $ =
2019-01-21 22:53 METAR KFWN 220353Z AUTO VRB05KT 10SM CLR M13/M19 A3037 RMK AO2 SLP295 T11281189
                 $ =
2019-01-21 21:53 METAR KFWN 220253Z AUTO VRB03KT 10SM BKN036 M13/M19 A3034 RMK AO2 SLP283
                 T11281189 51021 $ =
2019-01-21 20:53 METAR KFWN 220153Z AUTO VRB03KT 10SM OVC036 M13/M19 A3033 RMK AO2 SLP280
                 T11331194 $ =
2019-01-21 19:53 METAR KFWN 220053Z AUTO 30007KT 240V320 10SM SCT037 M13/M20 A3030 RMK AO2 SLP271
                 T11331200 $ =
2019-01-21 18:53 METAR KFWN 212353Z AUTO VRB03KT 10SM BKN039 M14/M21 A3028 RMK AO2 SLP262
                 T11391206 11117 21139 51037 $ =
2019-01-21 17:53 METAR KFWN 212253Z AUTO VRB06KT 10SM BKN043 M14/M22 A3025 RMK AO2 SLP253
                 T11391217 $ =

Support USWX by starting your Amazon purchase here.